Time;durP1;ratioP1;P1;durP2;ratioP2;P2;SDS_P1;SDS_P2;PMS_P1;PMS_P2;Temp;Humidity;BMP_temperature;BMP_pressure;BME280_temperature;BME280_humidity;BME280_pressure;Samples;Min_cycle;Max_cycle;Signal;HPM_P1;HPM_P2
2023/05/24 00:04:59;;;;;;;8.13;6.27;;;;;;;;;;12667289;23;20375;-85
2023/05/24 00:10:02;;;;;;;7.93;6.60;;;;;;;;;;12667140;23;20922;-85
2023/05/24 00:15:07;;;;;;;8.03;6.60;;;;;;;;;;12669358;23;20379;-85
2023/05/24 00:20:11;;;;;;;8.53;6.40;;;;;;;;;;12692384;23;20457;-85
2023/05/24 00:25:13;;;;;;;8.18;6.53;;;;;;;;;;12671439;23;20371;-85
2023/05/24 00:30:17;;;;;;;9.75;6.70;;;;;;;;;;12671857;23;20499;-84
2023/05/24 00:35:19;;;;;;;9.27;6.88;;;;;;;;;;12669213;23;20399;-85
2023/05/24 00:40:22;;;;;;;10.27;6.85;;;;;;;;;;12671179;23;20918;-85
2023/05/24 00:45:25;;;;;;;9.73;6.78;;;;;;;;;;12672322;23;20854;-85
2023/05/24 00:50:28;;;;;;;8.52;6.82;;;;;;;;;;12671235;23;20387;-84
2023/05/24 00:55:30;;;;;;;8.00;6.60;;;;;;;;;;12670749;23;20374;-85
2023/05/24 01:00:34;;;;;;;8.43;6.53;;;;;;;;;;12669938;23;20534;-85
2023/05/24 01:05:37;;;;;;;8.75;6.40;;;;;;;;;;12665873;23;20371;-86
2023/05/24 01:10:47;;;;;;;8.90;6.55;;;;;;;;;;12666263;23;20565;-85
2023/05/24 01:15:57;;;;;;;7.53;6.10;;;;;;;;;;12666179;23;20511;-86
2023/05/24 01:21:13;;;;;;;6.95;6.05;;;;;;;;;;12668189;23;20422;-85
2023/05/24 01:26:26;;;;;;;8.20;6.43;;;;;;;;;;12665484;23;20832;-85
2023/05/24 01:31:30;;;;;;;7.95;6.50;;;;;;;;;;12665784;23;20395;-86
2023/05/24 01:36:32;;;;;;;10.45;6.35;;;;;;;;;;12667507;23;20849;-85
2023/05/24 01:41:41;;;;;;;7.13;5.97;;;;;;;;;;12670284;23;20371;-85
2023/05/24 01:46:47;;;;;;;8.27;6.25;;;;;;;;;;12687537;23;20430;-85
2023/05/24 01:51:53;;;;;;;8.53;6.37;;;;;;;;;;12669474;23;20462;-85
2023/05/24 01:56:58;;;;;;;7.63;6.53;;;;;;;;;;12670364;23;20902;-86
2023/05/24 02:02:02;;;;;;;10.05;6.60;;;;;;;;;;12669989;23;20371;-86
2023/05/24 02:07:05;;;;;;;8.75;6.75;;;;;;;;;;12669478;23;20456;-86
2023/05/24 02:12:08;;;;;;;9.70;7.15;;;;;;;;;;12690000;23;20387;-85
2023/05/24 02:17:13;;;;;;;8.87;6.90;;;;;;;;;;12668973;23;20417;-85
2023/05/24 02:22:15;;;;;;;9.30;7.30;;;;;;;;;;12668896;23;20371;-86
2023/05/24 02:27:17;;;;;;;8.37;6.93;;;;;;;;;;12669748;23;20379;-85
2023/05/24 02:32:21;;;;;;;8.73;6.80;;;;;;;;;;12670065;23;20763;-85
2023/05/24 02:37:23;;;;;;;9.85;7.45;;;;;;;;;;12668907;23;20851;-85
2023/05/24 02:42:26;;;;;;;10.40;7.25;;;;;;;;;;12669259;23;20402;-85
2023/05/24 02:47:29;;;;;;;8.10;6.82;;;;;;;;;;12669251;23;20375;-85
2023/05/24 02:52:32;;;;;;;9.18;7.40;;;;;;;;;;12668534;23;20387;-86
2023/05/24 02:57:34;;;;;;;8.35;6.55;;;;;;;;;;12669233;23;20406;-85
2023/05/24 03:02:39;;;;;;;10.45;6.60;;;;;;;;;;12668494;23;20403;-86
2023/05/24 03:07:41;;;;;;;8.07;6.80;;;;;;;;;;12669596;23;20367;-85
2023/05/24 03:12:44;;;;;;;9.87;7.30;;;;;;;;;;12667838;23;20394;-86
2023/05/24 03:17:48;;;;;;;9.25;7.30;;;;;;;;;;12667958;23;20422;-85
2023/05/24 03:22:52;;;;;;;9.80;7.13;;;;;;;;;;12667783;23;20376;-86
2023/05/24 03:27:54;;;;;;;9.47;7.90;;;;;;;;;;12669003;23;20407;-85
2023/05/24 03:32:58;;;;;;;10.13;8.05;;;;;;;;;;12668821;23;20423;-85
2023/05/24 03:38:00;;;;;;;12.50;8.73;;;;;;;;;;12668648;23;20406;-85
2023/05/24 03:43:02;;;;;;;9.60;7.87;;;;;;;;;;12668309;23;20386;-86
2023/05/24 03:48:06;;;;;;;9.82;7.57;;;;;;;;;;12668922;23;20827;-85
2023/05/24 03:53:09;;;;;;;11.50;7.53;;;;;;;;;;12668394;23;20372;-85
2023/05/24 03:58:11;;;;;;;9.70;7.60;;;;;;;;;;12667777;23;20431;-85
2023/05/24 04:03:15;;;;;;;9.77;6.90;;;;;;;;;;12667499;23;20406;-85
2023/05/24 04:08:17;;;;;;;10.00;6.68;;;;;;;;;;12668042;23;20371;-85
2023/05/24 04:13:19;;;;;;;9.73;6.77;;;;;;;;;;12667506;23;20828;-85
2023/05/24 04:18:23;;;;;;;9.25;7.05;;;;;;;;;;12667019;23;20705;-85
2023/05/24 04:23:26;;;;;;;10.48;7.18;;;;;;;;;;12668546;23;20407;-86
2023/05/24 04:28:28;;;;;;;9.50;7.20;;;;;;;;;;12667708;23;20851;-85
2023/05/24 04:33:32;;;;;;;11.52;6.45;;;;;;;;;;12668129;23;20836;-86
2023/05/24 04:38:34;;;;;;;8.65;6.70;;;;;;;;;;12665351;23;20424;-85
2023/05/24 04:43:37;;;;;;;9.82;6.25;;;;;;;;;;12665020;23;20367;-85
2023/05/24 04:48:41;;;;;;;7.88;5.88;;;;;;;;;;12666348;23;20371;-85
2023/05/24 04:53:43;;;;;;;8.48;5.40;;;;;;;;;;12667535;23;20375;-85
2023/05/24 04:58:46;;;;;;;11.23;5.47;;;;;;;;;;12665930;23;20371;-84
2023/05/24 05:03:49;;;;;;;6.55;5.30;;;;;;;;;;12661551;23;20391;-84
2023/05/24 05:08:51;;;;;;;6.88;5.60;;;;;;;;;;12660120;23;20391;-85
2023/05/24 05:13:54;;;;;;;7.03;5.33;;;;;;;;;;12661880;23;20442;-85
2023/05/24 05:18:57;;;;;;;7.57;5.30;;;;;;;;;;12664736;23;20819;-85
2023/05/24 05:24:00;;;;;;;8.43;5.50;;;;;;;;;;12665603;23;20910;-85
2023/05/24 05:29:02;;;;;;;8.90;6.17;;;;;;;;;;12666926;23;20595;-85
2023/05/24 05:34:08;;;;;;;9.13;5.60;;;;;;;;;;12669348;23;20371;-85
2023/05/24 05:39:10;;;;;;;8.27;5.68;;;;;;;;;;12668961;23;20870;-86
2023/05/24 05:44:13;;;;;;;7.77;5.70;;;;;;;;;;12673210;23;20367;-85
2023/05/24 05:49:17;;;;;;;7.60;5.50;;;;;;;;;;12670078;23;20542;-85
2023/05/24 05:54:20;;;;;;;8.27;5.57;;;;;;;;;;12669300;23;20399;-86
2023/05/24 05:59:22;;;;;;;10.37;5.77;;;;;;;;;;12669638;23;20435;-85
2023/05/24 06:04:26;;;;;;;7.22;5.15;;;;;;;;;;12669807;23;20399;-86
2023/05/24 06:09:28;;;;;;;7.47;5.23;;;;;;;;;;12669698;23;20402;-85
2023/05/24 06:14:31;;;;;;;8.00;5.40;;;;;;;;;;12669052;23;20474;-86
2023/05/24 06:19:35;;;;;;;7.60;4.90;;;;;;;;;;12667577;23;20464;-85
2023/05/24 06:24:38;;;;;;;5.28;4.38;;;;;;;;;;12669174;23;20375;-86
2023/05/24 06:29:41;;;;;;;6.63;4.17;;;;;;;;;;12688031;23;20378;-86
2023/05/24 06:34:45;;;;;;;6.87;4.20;;;;;;;;;;12667970;23;20748;-86
2023/05/24 06:39:47;;;;;;;4.13;3.70;;;;;;;;;;12666371;23;20379;-84
2023/05/24 06:44:49;;;;;;;4.15;3.75;;;;;;;;;;12668618;23;20426;-86
2023/05/24 06:49:53;;;;;;;6.20;3.85;;;;;;;;;;12668811;23;20418;-85
2023/05/24 06:54:56;;;;;;;5.03;3.67;;;;;;;;;;12667101;23;20375;-85
2023/05/24 06:59:58;;;;;;;5.30;3.63;;;;;;;;;;12666891;23;20425;-85
2023/05/24 07:05:02;;;;;;;6.33;3.83;;;;;;;;;;12668355;23;20692;-85
2023/05/24 07:10:06;;;;;;;6.67;4.27;;;;;;;;;;12666232;23;20431;-86
2023/05/24 07:15:09;;;;;;;6.23;4.63;;;;;;;;;;12664426;23;20426;-86
2023/05/24 07:20:13;;;;;;;6.88;4.63;;;;;;;;;;12665571;23;20371;-86
2023/05/24 07:25:16;;;;;;;7.45;4.88;;;;;;;;;;12667044;23;20379;-86
2023/05/24 07:30:18;;;;;;;10.35;7.25;;;;;;;;;;12664046;23;20445;-86
2023/05/24 07:35:22;;;;;;;9.40;7.30;;;;;;;;;;12664909;23;20379;-85
2023/05/24 07:40:25;;;;;;;9.40;7.63;;;;;;;;;;12665125;23;20375;-85
2023/05/24 07:45:27;;;;;;;9.47;7.20;;;;;;;;;;12666757;23;20832;-85
2023/05/24 07:50:32;;;;;;;7.93;7.13;;;;;;;;;;12667688;23;20913;-86
2023/05/24 07:55:34;;;;;;;10.40;6.57;;;;;;;;;;12666691;23;20426;-85
2023/05/24 08:00:36;;;;;;;9.57;6.65;;;;;;;;;;12669602;23;20583;-85
2023/05/24 08:05:40;;;;;;;10.82;5.90;;;;;;;;;;12667176;23;20433;-85
2023/05/24 08:10:42;;;;;;;7.72;4.90;;;;;;;;;;12667220;23;20395;-85
2023/05/24 08:15:45;;;;;;;6.57;5.00;;;;;;;;;;12666704;23;20430;-86
2023/05/24 08:20:49;;;;;;;8.10;5.30;;;;;;;;;;12666917;23;20379;-86
2023/05/24 08:25:52;;;;;;;8.27;5.03;;;;;;;;;;12668023;23;20840;-85
2023/05/24 08:30:54;;;;;;;7.77;5.20;;;;;;;;;;12667493;23;20760;-86
2023/05/24 08:35:58;;;;;;;5.80;4.70;;;;;;;;;;12668628;23;20367;-86
2023/05/24 08:41:02;;;;;;;6.30;4.97;;;;;;;;;;12671869;23;20371;-86
2023/05/24 08:46:05;;;;;;;5.70;4.90;;;;;;;;;;12671797;23;20410;-86
2023/05/24 08:51:09;;;;;;;6.57;4.40;;;;;;;;;;12670463;23;20779;-86
2023/05/24 08:56:11;;;;;;;5.20;4.70;;;;;;;;;;12671194;23;20372;-86
2023/05/24 09:01:14;;;;;;;6.85;4.78;;;;;;;;;;12671469;23;20846;-85
2023/05/24 09:06:18;;;;;;;6.57;4.80;;;;;;;;;;12674237;23;20371;-86
2023/05/24 09:11:22;;;;;;;7.90;5.20;;;;;;;;;;12676826;23;20391;-86
2023/05/24 09:16:25;;;;;;;6.43;5.27;;;;;;;;;;12670010;23;20764;-86
2023/05/24 09:21:29;;;;;;;6.28;5.15;;;;;;;;;;12671609;23;20371;-85
2023/05/24 09:26:31;;;;;;;6.38;4.97;;;;;;;;;;12664437;23;20430;-86
2023/05/24 09:31:34;;;;;;;6.97;5.40;;;;;;;;;;12669111;23;20442;-85
2023/05/24 09:36:41;;;;;;;6.73;5.17;;;;;;;;;;12668431;23;20414;-86
2023/05/24 09:41:45;;;;;;;6.97;5.27;;;;;;;;;;12668951;23;20371;-86
2023/05/24 09:46:47;;;;;;;6.13;5.32;;;;;;;;;;12669720;23;20426;-86
2023/05/24 09:51:52;;;;;;;6.18;5.28;;;;;;;;;;12669667;23;20760;-86
2023/05/24 09:56:55;;;;;;;6.75;5.07;;;;;;;;;;12669442;23;20375;-86
2023/05/24 10:02:09;;;;;;;6.43;4.90;;;;;;;;;;12666592;23;20836;-85
2023/05/24 10:07:12;;;;;;;6.63;5.43;;;;;;;;;;12667011;23;20402;-86
2023/05/24 10:12:16;;;;;;;7.23;5.73;;;;;;;;;;12667913;23;20481;-85
2023/05/24 10:17:18;;;;;;;6.83;5.40;;;;;;;;;;12671893;23;20375;-86
2023/05/24 10:22:24;;;;;;;9.68;5.72;;;;;;;;;;12667304;23;20431;-86
2023/05/24 10:27:30;;;;;;;7.80;5.47;;;;;;;;;;12667988;23;20375;-86
2023/05/24 10:32:35;;;;;;;6.80;5.22;;;;;;;;;;12667468;23;20383;-86
2023/05/24 10:37:39;;;;;;;6.38;5.57;;;;;;;;;;12665837;23;20379;-85
2023/05/24 10:42:43;;;;;;;6.85;5.50;;;;;;;;;;12666148;23;20375;-86
2023/05/24 10:47:46;;;;;;;7.72;5.72;;;;;;;;;;12658315;23;20937;-86
2023/05/24 10:52:50;;;;;;;6.73;4.93;;;;;;;;;;12658657;23;20430;-87
2023/05/24 10:57:55;;;;;;;5.57;4.95;;;;;;;;;;12657955;23;20387;-86
2023/05/24 11:03:01;;;;;;;5.47;4.95;;;;;;;;;;12657477;23;20642;-86
2023/05/24 11:08:08;;;;;;;6.00;5.03;;;;;;;;;;12658067;23;20387;-86
2023/05/24 11:13:10;;;;;;;6.75;5.05;;;;;;;;;;12657567;23;20450;-86
2023/05/24 11:18:16;;;;;;;6.90;5.10;;;;;;;;;;12659682;23;20449;-85
2023/05/24 11:23:20;;;;;;;6.35;5.47;;;;;;;;;;12659052;23;20395;-86
2023/05/24 11:28:23;;;;;;;7.10;5.00;;;;;;;;;;12661819;23;20440;-86
2023/05/24 11:33:25;;;;;;;6.03;4.78;;;;;;;;;;12659009;23;20395;-85
2023/05/24 11:38:29;;;;;;;5.97;5.30;;;;;;;;;;12658120;23;20465;-85
2023/05/24 11:43:32;;;;;;;6.15;5.15;;;;;;;;;;12657814;23;20426;-86
2023/05/24 11:48:34;;;;;;;5.37;4.83;;;;;;;;;;12659567;23;20372;-86
2023/05/24 11:53:38;;;;;;;4.97;4.57;;;;;;;;;;12659379;23;20394;-85
2023/05/24 11:58:48;;;;;;;5.03;4.53;;;;;;;;;;12658459;23;20414;-86
2023/05/24 12:03:52;;;;;;;6.00;4.60;;;;;;;;;;12655526;23;20457;-85
2023/05/24 12:08:57;;;;;;;7.00;5.07;;;;;;;;;;12658975;23;20712;-85
2023/05/24 12:13:59;;;;;;;5.47;4.80;;;;;;;;;;12658402;23;20390;-84
2023/05/24 12:19:02;;;;;;;8.00;4.70;;;;;;;;;;12661166;23;20375;-85
2023/05/24 12:24:09;;;;;;;5.30;4.80;;;;;;;;;;12662978;23;20426;-85
2023/05/24 12:29:12;;;;;;;6.53;5.15;;;;;;;;;;12666268;23;20742;-84
2023/05/24 12:34:16;;;;;;;5.20;4.65;;;;;;;;;;12665126;23;20422;-85
2023/05/24 12:39:22;;;;;;;5.95;4.88;;;;;;;;;;12671254;23;20379;-85
2023/05/24 12:44:26;;;;;;;6.80;5.13;;;;;;;;;;12666617;23;20367;-85
2023/05/24 12:49:28;;;;;;;7.47;5.00;;;;;;;;;;12687259;23;20726;-85
2023/05/24 12:54:32;;;;;;;6.07;5.33;;;;;;;;;;12668594;23;20930;-85
2023/05/24 12:59:34;;;;;;;5.90;5.30;;;;;;;;;;12668269;23;20402;-85
2023/05/24 13:04:37;;;;;;;5.80;5.30;;;;;;;;;;12656439;23;20418;-85
2023/05/24 13:09:41;;;;;;;5.88;5.05;;;;;;;;;;12682443;23;20952;-85
2023/05/24 13:14:43;;;;;;;6.25;5.40;;;;;;;;;;12665358;23;20426;-85
2023/05/24 13:19:46;;;;;;;7.40;5.75;;;;;;;;;;12662993;23;20419;-85
2023/05/24 13:24:50;;;;;;;5.68;5.18;;;;;;;;;;12664366;23;20464;-85
2023/05/24 13:29:52;;;;;;;7.47;5.45;;;;;;;;;;12664235;23;20371;-85
2023/05/24 13:34:55;;;;;;;5.60;4.97;;;;;;;;;;12664967;23;20395;-85
2023/05/24 13:39:59;;;;;;;6.70;5.20;;;;;;;;;;12662919;23;20383;-85
2023/05/24 13:45:02;;;;;;;6.03;5.43;;;;;;;;;;12665227;23;20426;-85
2023/05/24 13:50:05;;;;;;;8.13;5.68;;;;;;;;;;12662756;23;20446;-85
2023/05/24 13:55:09;;;;;;;6.10;5.50;;;;;;;;;;12661209;23;20398;-85
2023/05/24 14:00:13;;;;;;;6.38;5.60;;;;;;;;;;12662819;23;20403;-85
2023/05/24 14:05:15;;;;;;;5.70;5.20;;;;;;;;;;12665331;23;20708;-85
2023/05/24 14:10:19;;;;;;;6.03;5.43;;;;;;;;;;12662080;23;20479;-85
2023/05/24 14:15:21;;;;;;;7.13;5.28;;;;;;;;;;12661031;23;20391;-84
2023/05/24 14:20:23;;;;;;;6.05;5.40;;;;;;;;;;12665089;23;20430;-85
2023/05/24 14:25:27;;;;;;;6.15;5.35;;;;;;;;;;12664383;23;20372;-85
2023/05/24 14:30:31;;;;;;;7.35;6.07;;;;;;;;;;12659763;23;20441;-84
2023/05/24 14:35:36;;;;;;;8.35;5.60;;;;;;;;;;12661785;23;20395;-85
2023/05/24 14:40:41;;;;;;;6.82;5.60;;;;;;;;;;12663904;23;21138;-85
2023/05/24 14:45:43;;;;;;;8.32;5.25;;;;;;;;;;12663083;23;20371;-84
2023/05/24 14:50:45;;;;;;;6.63;5.60;;;;;;;;;;12655861;23;20505;-84
2023/05/24 14:55:49;;;;;;;7.60;5.78;;;;;;;;;;12652849;23;20395;-85
2023/05/24 15:00:52;;;;;;;7.15;5.32;;;;;;;;;;12655241;23;20375;-85
2023/05/24 15:05:54;;;;;;;5.93;5.10;;;;;;;;;;12649170;23;20450;-85
2023/05/24 15:10:58;;;;;;;7.85;5.30;;;;;;;;;;12653515;23;20446;-85
2023/05/24 15:16:00;;;;;;;5.95;5.20;;;;;;;;;;12653056;23;20394;-85
2023/05/24 15:21:02;;;;;;;6.25;5.32;;;;;;;;;;12655400;23;20915;-86
2023/05/24 15:26:06;;;;;;;5.90;5.35;;;;;;;;;;12661481;23;20494;-85
2023/05/24 15:31:10;;;;;;;6.57;5.10;;;;;;;;;;12655622;23;20442;-85
2023/05/24 15:36:15;;;;;;;5.40;4.90;;;;;;;;;;12662888;23;20390;-85
2023/05/24 15:41:19;;;;;;;5.87;5.03;;;;;;;;;;12663605;23;20375;-85
2023/05/24 15:46:22;;;;;;;6.28;5.10;;;;;;;;;;12654250;23;20635;-84
2023/05/24 15:51:24;;;;;;;5.78;5.13;;;;;;;;;;12650529;23;20387;-84
2023/05/24 15:56:28;;;;;;;5.93;4.90;;;;;;;;;;12652815;23;20772;-85
2023/05/24 16:01:31;;;;;;;5.22;4.50;;;;;;;;;;12652752;23;20406;-85
2023/05/24 16:06:33;;;;;;;5.22;4.60;;;;;;;;;;12654258;23;20756;-84
2023/05/24 16:11:37;;;;;;;6.80;5.30;;;;;;;;;;12654698;23;20453;-84
2023/05/24 16:16:40;;;;;;;6.43;4.82;;;;;;;;;;12647106;23;20395;-85
2023/05/24 16:21:43;;;;;;;6.07;5.23;;;;;;;;;;12650582;23;20387;-84
2023/05/24 16:26:47;;;;;;;7.10;4.85;;;;;;;;;;12649202;23;20462;-83
2023/05/24 16:31:49;;;;;;;7.53;5.10;;;;;;;;;;12645422;23;20414;-84
2023/05/24 16:36:52;;;;;;;6.03;4.55;;;;;;;;;;12648213;23;20383;-84
2023/05/24 16:41:55;;;;;;;5.43;4.57;;;;;;;;;;12650302;23;20383;-83
2023/05/24 16:46:58;;;;;;;6.95;4.55;;;;;;;;;;12647690;23;20391;-83
2023/05/24 16:52:00;;;;;;;4.78;4.30;;;;;;;;;;12649667;23;20379;-83
2023/05/24 16:57:05;;;;;;;8.60;4.63;;;;;;;;;;12652496;23;20371;-83
2023/05/24 17:02:07;;;;;;;5.45;4.20;;;;;;;;;;12654938;23;20430;-83
2023/05/24 17:07:10;;;;;;;6.35;4.53;;;;;;;;;;12656240;23;20501;-83
2023/05/24 17:12:13;;;;;;;5.23;4.20;;;;;;;;;;12656905;23;20854;-84
2023/05/24 17:17:16;;;;;;;5.10;4.20;;;;;;;;;;12652095;23;20382;-84
2023/05/24 17:22:18;;;;;;;5.10;4.60;;;;;;;;;;12659798;23;20442;-84
2023/05/24 17:27:22;;;;;;;5.53;4.20;;;;;;;;;;12647622;23;20383;-83
2023/05/24 17:32:24;;;;;;;5.13;4.40;;;;;;;;;;12654639;23;20380;-84
2023/05/24 17:37:26;;;;;;;6.57;4.57;;;;;;;;;;12655094;23;20387;-84
2023/05/24 17:42:30;;;;;;;7.30;4.60;;;;;;;;;;12656453;23;20379;-84
2023/05/24 17:47:32;;;;;;;5.10;4.37;;;;;;;;;;12654331;23;20889;-83
2023/05/24 17:52:35;;;;;;;5.20;4.70;;;;;;;;;;12655539;23;20450;-83
2023/05/24 17:57:38;;;;;;;6.05;4.30;;;;;;;;;;12657094;23;20845;-84
2023/05/24 18:02:41;;;;;;;5.23;4.50;;;;;;;;;;12655129;23;20371;-82
2023/05/24 18:07:43;;;;;;;5.95;4.68;;;;;;;;;;12655143;23;20383;-84
2023/05/24 18:12:47;;;;;;;5.28;4.75;;;;;;;;;;12655592;23;20395;-86
2023/05/24 18:17:50;;;;;;;6.78;4.68;;;;;;;;;;12660255;23;20387;-84
2023/05/24 18:22:52;;;;;;;5.80;4.53;;;;;;;;;;12657463;23;20383;-84
2023/05/24 18:27:56;;;;;;;5.95;4.53;;;;;;;;;;12661611;23;20418;-83
2023/05/24 18:32:59;;;;;;;6.30;4.82;;;;;;;;;;12657229;23;20415;-83
2023/05/24 18:38:02;;;;;;;6.10;4.95;;;;;;;;;;12650908;23;20883;-83
2023/05/24 18:43:05;;;;;;;6.63;5.07;;;;;;;;;;12654678;23;20482;-84
2023/05/24 18:48:08;;;;;;;5.78;4.88;;;;;;;;;;12655089;23;20388;-84
2023/05/24 18:53:10;;;;;;;6.57;4.93;;;;;;;;;;12656045;23;20382;-83
2023/05/24 18:58:14;;;;;;;6.45;4.85;;;;;;;;;;12654399;23;20418;-83
2023/05/24 19:03:16;;;;;;;8.20;5.30;;;;;;;;;;12654971;23;20375;-83
2023/05/24 19:08:19;;;;;;;6.55;5.40;;;;;;;;;;12655095;23;20367;-83
2023/05/24 19:13:23;;;;;;;6.33;5.07;;;;;;;;;;12654371;23;21072;-84
2023/05/24 19:18:25;;;;;;;6.82;5.40;;;;;;;;;;12651221;23;20386;-84
2023/05/24 19:23:27;;;;;;;9.53;6.10;;;;;;;;;;12656486;23;21085;-84
2023/05/24 19:28:33;;;;;;;7.13;6.43;;;;;;;;;;12652902;23;20387;-84
2023/05/24 19:33:35;;;;;;;9.65;6.72;;;;;;;;;;12653073;23;20395;-84
2023/05/24 19:38:38;;;;;;;8.27;6.45;;;;;;;;;;12653107;23;20379;-83
2023/05/24 19:43:42;;;;;;;9.13;6.70;;;;;;;;;;12653082;23;20458;-83
2023/05/24 19:48:44;;;;;;;6.80;6.05;;;;;;;;;;12651116;23;20768;-83
2023/05/24 19:53:46;;;;;;;8.97;5.93;;;;;;;;;;12653808;23;20454;-85
2023/05/24 19:58:51;;;;;;;6.63;5.88;;;;;;;;;;12651093;23;20864;-83
2023/05/24 20:03:53;;;;;;;7.85;6.63;;;;;;;;;;12650537;23;20511;-83
2023/05/24 20:08:58;;;;;;;7.70;6.82;;;;;;;;;;12651650;23;20835;-85
2023/05/24 20:14:02;;;;;;;12.70;6.88;;;;;;;;;;12653068;23;20383;-85
2023/05/24 20:19:04;;;;;;;9.43;6.87;;;;;;;;;;12652992;23;21237;-85
2023/05/24 20:24:06;;;;;;;10.77;7.60;;;;;;;;;;12655896;23;20383;-85
2023/05/24 20:29:10;;;;;;;9.63;7.32;;;;;;;;;;12662268;23;20383;-85
2023/05/24 20:34:12;;;;;;;10.13;8.18;;;;;;;;;;12659479;23;20398;-85
2023/05/24 20:39:15;;;;;;;10.27;7.03;;;;;;;;;;12668355;23;20712;-85
2023/05/24 20:44:18;;;;;;;7.65;6.63;;;;;;;;;;12666336;23;20898;-85
2023/05/24 20:49:21;;;;;;;8.50;6.90;;;;;;;;;;12667877;23;20435;-86
2023/05/24 20:54:24;;;;;;;7.80;6.60;;;;;;;;;;12669839;23;20382;-86
2023/05/24 20:59:28;;;;;;;6.60;5.30;;;;;;;;;;12662276;23;20453;-86
2023/05/24 21:04:30;;;;;;;6.20;4.90;;;;;;;;;;12666828;23;20383;-86
2023/05/24 21:09:32;;;;;;;7.05;5.00;;;;;;;;;;12660467;23;20465;-85
2023/05/24 21:14:36;;;;;;;7.07;4.85;;;;;;;;;;12659326;23;20391;-85
2023/05/24 21:19:38;;;;;;;6.57;4.73;;;;;;;;;;12659732;23;20734;-85
2023/05/24 21:24:40;;;;;;;5.20;4.53;;;;;;;;;;12659689;23;20428;-85
2023/05/24 21:29:44;;;;;;;5.03;4.30;;;;;;;;;;12656563;23;21307;-86
2023/05/24 21:34:46;;;;;;;5.15;4.40;;;;;;;;;;12664009;23;20507;-84
2023/05/24 21:39:49;;;;;;;4.90;4.40;;;;;;;;;;12659056;23;20445;-85
2023/05/24 21:44:52;;;;;;;5.18;4.50;;;;;;;;;;12664298;23;20442;-84
2023/05/24 21:49:55;;;;;;;5.78;4.55;;;;;;;;;;12666159;23;20465;-85
2023/05/24 21:54:57;;;;;;;4.90;4.20;;;;;;;;;;12658074;23;20430;-84
2023/05/24 22:00:02;;;;;;;5.13;4.60;;;;;;;;;;12659281;23;20418;-84
2023/05/24 22:05:05;;;;;;;6.22;4.82;;;;;;;;;;12657086;23;20387;-85
2023/05/24 22:10:10;;;;;;;5.13;3.97;;;;;;;;;;12666052;23;20383;-84
2023/05/24 22:15:14;;;;;;;6.07;4.13;;;;;;;;;;12667668;23;20422;-84
2023/05/24 22:20:17;;;;;;;4.63;3.90;;;;;;;;;;12668221;23;20760;-85
2023/05/24 22:25:20;;;;;;;5.72;4.07;;;;;;;;;;12667299;23;20399;-84
2023/05/24 22:30:25;;;;;;;5.32;3.90;;;;;;;;;;12667942;23;20371;-84
2023/05/24 22:35:27;;;;;;;4.30;3.80;;;;;;;;;;12667235;23;20391;-84
2023/05/24 22:40:29;;;;;;;6.20;3.90;;;;;;;;;;12663658;23;20429;-84
2023/05/24 22:45:33;;;;;;;5.40;4.10;;;;;;;;;;12686588;23;20434;-84
2023/05/24 22:50:37;;;;;;;4.57;3.70;;;;;;;;;;12667994;23;20372;-84
2023/05/24 22:55:39;;;;;;;4.32;3.83;;;;;;;;;;12666345;23;20390;-85
2023/05/24 23:00:43;;;;;;;4.45;3.90;;;;;;;;;;12668449;23;20499;-85
2023/05/24 23:05:45;;;;;;;5.15;4.00;;;;;;;;;;12667712;23;20406;-83
2023/05/24 23:10:48;;;;;;;4.50;3.83;;;;;;;;;;12667716;23;20457;-84
2023/05/24 23:15:51;;;;;;;5.20;3.93;;;;;;;;;;12668083;23;20461;-85
2023/05/24 23:20:54;;;;;;;4.57;3.88;;;;;;;;;;12667600;23;20367;-85
2023/05/24 23:25:57;;;;;;;5.70;4.18;;;;;;;;;;12666134;23;20458;-84
2023/05/24 23:31:01;;;;;;;5.72;4.00;;;;;;;;;;12688221;23;20446;-84
2023/05/24 23:36:04;;;;;;;5.18;4.38;;;;;;;;;;12667293;23;20631;-83
2023/05/24 23:41:06;;;;;;;5.10;4.05;;;;;;;;;;12666238;23;20843;-83
2023/05/24 23:46:10;;;;;;;6.10;4.40;;;;;;;;;;12667039;23;20422;-83
2023/05/24 23:51:12;;;;;;;4.67;3.83;;;;;;;;;;12667264;23;20375;-83
2023/05/24 23:56:15;;;;;;;6.53;4.30;;;;;;;;;;12668144;23;20455;-83
